createdAt,value
2018-08-11T00:01:39.093Z,1.03
2018-08-11T00:04:07.589Z,1.33
2018-08-11T00:06:36.052Z,1.23
2018-08-11T00:09:07.348Z,1.03
2018-08-11T00:11:35.727Z,1.23
2018-08-11T00:14:04.143Z,1.03
2018-08-11T00:16:33.562Z,1.03
2018-08-11T00:19:02.053Z,1.30
2018-08-11T00:21:30.559Z,1.20
2018-08-11T00:23:58.975Z,1.17
2018-08-11T00:26:28.608Z,0.90
2018-08-11T00:28:57.085Z,0.80
2018-08-11T00:31:25.579Z,1.33
2018-08-11T00:33:54.535Z,1.20
2018-08-11T00:36:23.070Z,1.50
2018-08-11T00:38:51.526Z,1.10
2018-08-11T00:41:20.049Z,1.27
2018-08-11T00:43:48.533Z,1.40
2018-08-11T00:46:17.025Z,1.00
2018-08-11T00:48:45.557Z,1.10
2018-08-11T00:51:14.079Z,1.30
2018-08-11T00:53:42.565Z,1.00
2018-08-11T00:56:11.127Z,1.33
2018-08-11T00:58:39.555Z,1.30
2018-08-11T01:01:07.983Z,1.23
2018-08-11T01:03:36.407Z,1.20
2018-08-11T01:06:04.887Z,1.40
2018-08-11T01:08:33.292Z,1.30
2018-08-11T01:11:01.842Z,1.03
2018-08-11T01:13:30.239Z,1.47
2018-08-11T01:15:58.702Z,1.30
2018-08-11T01:18:27.144Z,1.37
2018-08-11T01:20:55.680Z,1.30
2018-08-11T01:23:24.084Z,1.20
2018-08-11T01:25:52.511Z,1.30
2018-08-11T01:28:20.963Z,1.30
2018-08-11T01:30:49.442Z,1.40
2018-08-11T01:33:17.854Z,1.60
2018-08-11T01:35:46.282Z,1.10
2018-08-11T01:38:14.695Z,1.33
2018-08-11T01:40:43.138Z,1.00
2018-08-11T01:43:11.870Z,1.40
2018-08-11T01:45:40.296Z,1.50
2018-08-11T01:48:08.723Z,1.30
2018-08-11T01:50:37.086Z,1.20
2018-08-11T01:53:05.416Z,1.50
2018-08-11T01:55:34.215Z,1.60
2018-08-11T01:58:02.592Z,1.43
2018-08-11T02:00:30.947Z,1.40
2018-08-11T02:02:59.283Z,1.70
2018-08-11T02:05:27.664Z,2.67
2018-08-11T02:07:56.023Z,3.03
2018-08-11T02:10:25.303Z,3.70
2018-08-11T02:12:53.786Z,3.97
2018-08-11T02:15:22.981Z,3.93
2018-08-11T02:17:51.454Z,3.00
2018-08-11T02:20:20.313Z,1.40
2018-08-11T02:22:49.697Z,1.17
2018-08-11T02:25:18.494Z,1.30
2018-08-11T02:27:46.872Z,1.13
2018-08-11T02:30:16.548Z,1.43
2018-08-11T02:32:45.001Z,1.10
2018-08-11T02:35:14.007Z,1.00
2018-08-11T02:37:42.579Z,1.20
2018-08-11T02:40:12.432Z,1.17
2018-08-11T02:42:40.835Z,0.90
2018-08-11T02:45:11.043Z,1.20
2018-08-11T02:47:39.495Z,0.90
2018-08-11T02:50:09.416Z,0.90
2018-08-11T02:52:38.001Z,1.13
2018-08-11T02:55:06.640Z,0.87
2018-08-11T02:57:35.135Z,1.10
2018-08-11T03:00:03.672Z,0.93
2018-08-11T03:02:32.253Z,0.93
2018-08-11T03:05:00.528Z,0.83
2018-08-11T03:07:28.934Z,0.80
2018-08-11T03:09:57.369Z,1.00
2018-08-11T03:12:25.870Z,1.10
2018-08-11T03:14:54.379Z,1.17
2018-08-11T03:17:22.867Z,1.00
2018-08-11T03:19:54.160Z,1.17
2018-08-11T03:22:22.590Z,0.97
2018-08-11T03:24:51.056Z,1.03
2018-08-11T03:27:19.467Z,1.17
2018-08-11T03:29:47.863Z,1.10
2018-08-11T03:32:16.290Z,1.30
2018-08-11T03:34:44.695Z,0.87
2018-08-11T03:37:13.159Z,1.00
2018-08-11T03:39:41.568Z,1.07
2018-08-11T03:42:10.044Z,1.50
2018-08-11T03:44:38.459Z,1.40
2018-08-11T03:47:06.901Z,1.20
2018-08-11T03:49:35.315Z,1.50
2018-08-11T03:52:03.807Z,1.73
2018-08-11T03:54:32.211Z,1.70
2018-08-11T03:57:00.631Z,2.10
2018-08-11T03:59:29.115Z,2.00
2018-08-11T04:01:57.574Z,2.63
2018-08-11T04:04:25.977Z,2.70
2018-08-11T04:06:54.411Z,3.07
2018-08-11T04:09:29.470Z,2.50
2018-08-11T04:11:57.914Z,2.70
2018-08-11T04:14:26.347Z,2.53
2018-08-11T04:16:54.783Z,2.00
2018-08-11T04:19:23.299Z,1.87
2018-08-11T04:21:52.796Z,2.50
2018-08-11T04:24:22.257Z,2.13
2018-08-11T04:26:50.792Z,2.13
2018-08-11T04:29:19.276Z,2.70
2018-08-11T04:31:47.765Z,1.87
2018-08-11T04:34:16.275Z,1.77
2018-08-11T04:36:44.767Z,1.93
2018-08-11T04:39:13.183Z,1.40
2018-08-11T04:41:41.590Z,2.03
2018-08-11T04:44:10.063Z,1.80
2018-08-11T04:46:38.565Z,1.77
2018-08-11T04:49:06.989Z,1.90
2018-08-11T04:51:35.428Z,1.50
2018-08-11T04:54:03.962Z,1.60
2018-08-11T04:56:32.382Z,1.57
2018-08-11T04:59:00.791Z,1.43
2018-08-11T05:01:29.218Z,1.97
2018-08-11T05:03:57.652Z,1.77
2018-08-11T05:06:26.086Z,2.10
2018-08-11T05:08:54.482Z,2.30
2018-08-11T05:11:22.895Z,1.83
2018-08-11T05:13:51.340Z,1.93
2018-08-11T05:16:19.799Z,2.50
2018-08-11T05:18:48.202Z,2.20
2018-08-11T05:21:16.628Z,1.73
2018-08-11T05:23:45.139Z,2.17
2018-08-11T05:26:13.631Z,1.83
2018-08-11T05:28:42.071Z,2.80
2018-08-11T05:31:10.520Z,2.20
2018-08-11T05:33:38.915Z,2.57
2018-08-11T05:36:07.703Z,3.30
2018-08-11T05:38:36.528Z,2.63
2018-08-11T05:41:04.934Z,2.60
2018-08-11T05:43:33.384Z,2.90
2018-08-11T05:46:01.847Z,2.90
2018-08-11T05:48:30.294Z,3.10
2018-08-11T05:50:58.686Z,2.93
2018-08-11T05:53:27.114Z,3.33
2018-08-11T05:55:55.506Z,3.03
2018-08-11T05:58:23.951Z,3.07
2018-08-11T06:00:52.365Z,3.17
2018-08-11T06:03:20.808Z,3.10
2018-08-11T06:05:49.247Z,3.20
2018-08-11T06:08:17.659Z,3.10
2018-08-11T06:10:46.071Z,3.37
2018-08-11T06:13:14.526Z,3.80
2018-08-11T06:15:42.950Z,3.30
2018-08-11T06:18:11.394Z,3.10
2018-08-11T06:20:39.819Z,3.43
2018-08-11T06:23:08.247Z,3.90
2018-08-11T06:25:36.686Z,3.23
2018-08-11T06:28:05.202Z,3.73
2018-08-11T06:30:33.593Z,3.30
2018-08-11T06:33:02.079Z,3.83
2018-08-11T06:35:30.521Z,3.80
2018-08-11T06:37:58.943Z,4.10
2018-08-11T06:40:27.400Z,4.40
2018-08-11T06:42:55.783Z,4.60
2018-08-11T06:45:24.206Z,5.80
2018-08-11T06:47:52.644Z,5.63
2018-08-11T06:50:21.129Z,6.70
2018-08-11T06:52:49.568Z,5.67
2018-08-11T06:55:17.999Z,6.57
2018-08-11T06:57:46.430Z,6.67
2018-08-11T07:00:14.895Z,5.80
2018-08-11T07:02:43.316Z,6.10
2018-08-11T07:05:11.724Z,5.17
2018-08-11T07:07:40.163Z,6.20
2018-08-11T07:10:08.631Z,6.10
2018-08-11T07:12:37.144Z,6.43
2018-08-11T07:15:06.253Z,6.43
2018-08-11T07:17:34.695Z,5.63
2018-08-11T07:20:03.143Z,5.50
2018-08-11T07:22:31.622Z,5.67
2018-08-11T07:25:00.040Z,5.50
2018-08-11T07:27:28.482Z,6.23
2018-08-11T07:29:56.881Z,5.07
2018-08-11T07:32:25.295Z,4.87
2018-08-11T07:34:53.719Z,4.17
2018-08-11T07:37:22.163Z,4.87
2018-08-11T07:39:50.590Z,4.77
2018-08-11T07:42:19.034Z,4.33
2018-08-11T07:44:47.453Z,4.10
2018-08-11T07:47:15.828Z,3.13
2018-08-11T07:49:44.196Z,2.43
2018-08-11T07:52:12.546Z,3.27
2018-08-11T07:54:40.911Z,3.50
2018-08-11T07:57:09.270Z,3.60
2018-08-11T07:59:37.630Z,4.50
2018-08-11T08:02:06.008Z,4.80
2018-08-11T08:04:34.376Z,4.63
2018-08-11T08:07:02.738Z,4.57
2018-08-11T08:09:31.091Z,5.40
2018-08-11T08:11:59.423Z,6.33
2018-08-11T08:14:27.799Z,4.30
2018-08-11T08:16:56.154Z,4.33
2018-08-11T08:19:24.504Z,3.40
2018-08-11T08:21:52.839Z,2.47
2018-08-11T08:24:21.182Z,2.77
2018-08-11T08:26:49.601Z,2.30
2018-08-11T08:29:17.935Z,2.13
2018-08-11T08:31:46.282Z,2.00
2018-08-11T08:34:14.648Z,2.30
2018-08-11T08:36:42.997Z,1.70
2018-08-11T08:39:12.463Z,1.53
2018-08-11T08:41:41.168Z,1.50
2018-08-11T08:44:09.873Z,1.60
2018-08-11T08:46:38.214Z,1.40
2018-08-11T08:49:06.591Z,1.20
2018-08-11T08:51:34.920Z,1.23
2018-08-11T08:54:03.299Z,1.70
2018-08-11T08:56:31.655Z,2.50
2018-08-11T08:59:00.042Z,1.57
2018-08-11T09:01:28.431Z,1.77
2018-08-11T09:03:56.783Z,1.53
2018-08-11T09:06:25.115Z,1.90
2018-08-11T09:08:53.475Z,1.40
2018-08-11T09:11:21.864Z,1.30
2018-08-11T09:13:50.202Z,1.50
2018-08-11T09:16:18.556Z,1.20
2018-08-11T09:18:46.898Z,1.10
2018-08-11T09:21:15.231Z,1.30
2018-08-11T09:23:43.579Z,1.37
2018-08-11T09:26:11.912Z,1.00
2018-08-11T09:28:40.295Z,1.00
2018-08-11T09:31:08.633Z,1.10
2018-08-11T09:33:36.982Z,1.50
2018-08-11T09:36:05.324Z,1.20
2018-08-11T09:38:33.719Z,1.40
2018-08-11T09:41:02.038Z,1.37
2018-08-11T09:43:30.411Z,1.27
2018-08-11T09:45:58.867Z,1.20
2018-08-11T09:48:27.275Z,1.50
2018-08-11T09:50:55.718Z,1.27
2018-08-11T09:53:24.139Z,1.50
2018-08-11T09:55:52.578Z,1.20
2018-08-11T09:58:21.028Z,1.50
2018-08-11T10:00:53.670Z,1.60
2018-08-11T10:03:22.379Z,1.33
2018-08-11T10:05:50.902Z,1.60
2018-08-11T10:08:19.326Z,1.27
2018-08-11T10:10:47.832Z,1.57
2018-08-11T10:13:16.935Z,1.00
2018-08-11T10:15:45.378Z,1.97
2018-08-11T10:18:13.798Z,1.10
2018-08-11T10:20:42.311Z,1.17
2018-08-11T10:23:10.722Z,1.30
2018-08-11T10:25:39.849Z,1.47
2018-08-11T10:28:08.272Z,1.40
2018-08-11T10:30:36.747Z,1.30
2018-08-11T10:33:05.160Z,1.50
2018-08-11T10:35:34.462Z,1.70
2018-08-11T10:38:03.298Z,1.63
2018-08-11T10:40:31.735Z,1.40
2018-08-11T10:43:00.150Z,1.50
2018-08-11T10:45:28.539Z,1.60
2018-08-11T10:47:56.892Z,1.90
2018-08-11T10:50:25.944Z,1.60
2018-08-11T10:52:54.380Z,2.23
2018-08-11T10:55:23.639Z,1.70
2018-08-11T10:57:52.105Z,1.50
2018-08-11T11:00:20.662Z,1.43
2018-08-11T11:02:49.094Z,1.70
2018-08-11T11:05:17.602Z,1.50
2018-08-11T11:07:46.181Z,1.33
2018-08-11T11:10:14.627Z,1.60
2018-08-11T11:12:43.235Z,1.80
2018-08-11T11:15:11.731Z,1.20
2018-08-11T11:17:40.605Z,1.57
2018-08-11T11:20:10.856Z,1.40
2018-08-11T11:22:39.198Z,1.53
2018-08-11T11:25:07.891Z,1.60
2018-08-11T11:27:36.215Z,1.70
2018-08-11T11:30:04.966Z,1.30
2018-08-11T11:32:33.311Z,1.23
2018-08-11T11:35:01.667Z,1.57
2018-08-11T11:37:30.031Z,1.53
2018-08-11T11:39:58.391Z,1.73
2018-08-11T11:42:26.715Z,1.23
2018-08-11T11:44:55.074Z,1.00
2018-08-11T11:47:23.561Z,1.37
2018-08-11T11:49:51.985Z,1.43
2018-08-11T11:52:20.392Z,1.40
2018-08-11T11:54:48.843Z,1.10
2018-08-11T11:57:17.267Z,1.03
2018-08-11T11:59:45.668Z,1.20
2018-08-11T12:02:14.115Z,1.43
2018-08-11T12:04:42.558Z,1.30
2018-08-11T12:07:11.023Z,1.30
2018-08-11T12:09:39.525Z,1.10
2018-08-11T12:12:08.020Z,1.10
2018-08-11T12:14:36.457Z,1.47
2018-08-11T12:18:08.380Z,1.50
2018-08-11T12:20:36.826Z,1.00
2018-08-11T12:23:05.347Z,1.27
2018-08-11T12:25:33.767Z,0.90
2018-08-11T12:28:02.177Z,1.73
2018-08-11T12:30:30.655Z,1.37
2018-08-11T12:32:59.250Z,1.20
2018-08-11T12:35:27.675Z,1.40
2018-08-11T12:37:56.138Z,1.53
2018-08-11T12:40:24.540Z,1.30
2018-08-11T12:42:52.948Z,1.20
2018-08-11T12:45:21.415Z,1.37
2018-08-11T12:47:49.843Z,1.23
2018-08-11T12:50:18.307Z,1.27
2018-08-11T12:52:53.359Z,1.03
2018-08-11T12:55:21.779Z,1.33
2018-08-11T12:57:50.192Z,1.50
2018-08-11T13:00:18.651Z,1.70
2018-08-11T13:02:47.069Z,1.27
2018-08-11T13:05:15.459Z,1.43
2018-08-11T13:07:44.123Z,1.17
2018-08-11T13:10:12.520Z,1.60
2018-08-11T13:12:40.940Z,1.40
2018-08-11T13:15:09.386Z,1.50
2018-08-11T13:17:37.800Z,1.77
2018-08-11T13:20:07.183Z,1.23
2018-08-11T13:22:35.659Z,1.60
2018-08-11T13:25:04.171Z,1.20
2018-08-11T13:27:32.610Z,1.47
2018-08-11T13:30:01.018Z,1.37
2018-08-11T13:32:29.478Z,1.53
2018-08-11T13:34:57.964Z,1.50
2018-08-11T13:37:26.379Z,1.40
2018-08-11T13:39:55.709Z,1.00
2018-08-11T13:42:24.226Z,0.90
2018-08-11T13:44:52.706Z,1.53
2018-08-11T13:47:23.909Z,1.07
2018-08-11T13:49:52.529Z,1.17
2018-08-11T13:52:21.219Z,1.40
2018-08-11T13:54:50.833Z,1.23
2018-08-11T13:57:19.396Z,1.30
2018-08-11T13:59:47.942Z,1.43
2018-08-11T14:02:16.628Z,1.17
2018-08-11T14:04:45.125Z,1.33
2018-08-11T14:07:13.648Z,1.20
2018-08-11T14:09:42.096Z,1.30
2018-08-11T14:12:10.907Z,1.20
2018-08-11T14:14:39.427Z,1.10
2018-08-11T14:17:07.948Z,1.10
2018-08-11T14:19:36.434Z,0.80
2018-08-11T14:22:04.927Z,1.00
2018-08-11T14:24:33.339Z,1.43
2018-08-11T14:27:01.755Z,1.50
2018-08-11T14:29:30.142Z,1.30
2018-08-11T14:31:58.558Z,1.43
2018-08-11T14:34:27.000Z,0.97
2018-08-11T14:36:55.428Z,1.13
2018-08-11T14:39:23.945Z,0.90
2018-08-11T14:41:52.386Z,1.00
2018-08-11T14:44:20.822Z,1.20
2018-08-11T14:46:49.250Z,0.97
2018-08-11T14:49:18.209Z,1.00
2018-08-11T14:51:47.113Z,0.80
2018-08-11T14:54:15.639Z,1.07
2018-08-11T14:56:44.972Z,1.07
2018-08-11T14:59:13.912Z,1.30
2018-08-11T15:01:42.393Z,1.37
2018-08-11T15:04:11.423Z,1.33
2018-08-11T15:06:39.862Z,1.10
2018-08-11T15:09:09.545Z,1.20
2018-08-11T15:11:37.975Z,1.00
2018-08-11T15:14:06.480Z,1.00
2018-08-11T15:16:35.073Z,1.23
2018-08-11T15:19:10.168Z,1.23
2018-08-11T15:21:38.658Z,1.13
2018-08-11T15:24:07.315Z,0.90
2018-08-11T15:26:36.022Z,1.07
2018-08-11T15:29:04.601Z,0.83
2018-08-11T15:31:33.122Z,1.20
2018-08-11T15:34:01.627Z,0.97
2018-08-11T15:36:30.200Z,1.40
2018-08-11T15:38:58.869Z,1.00
2018-08-11T15:41:27.406Z,1.00
2018-08-11T15:43:55.959Z,1.40
2018-08-11T15:46:24.544Z,1.20
2018-08-11T15:48:53.097Z,1.00
2018-08-11T15:51:21.618Z,1.17
2018-08-11T15:53:50.183Z,0.90
2018-08-11T15:56:19.611Z,1.30
2018-08-11T15:58:48.158Z,1.10
2018-08-11T16:01:16.679Z,1.70
2018-08-11T16:03:45.172Z,1.30
2018-08-11T16:06:13.575Z,1.33
2018-08-11T16:08:42.007Z,1.17
2018-08-11T16:11:11.337Z,0.90
2018-08-11T16:13:39.839Z,1.37
2018-08-11T16:16:08.246Z,1.97
2018-08-11T16:18:36.702Z,1.40
2018-08-11T16:21:05.131Z,1.20
2018-08-11T16:23:33.534Z,0.87
2018-08-11T16:26:02.077Z,1.20
2018-08-11T16:28:31.198Z,1.20
2018-08-11T16:31:00.187Z,1.17
2018-08-11T16:33:29.355Z,1.30
2018-08-11T16:35:58.352Z,1.40
2018-08-11T16:38:26.857Z,1.23
2018-08-11T16:40:55.379Z,1.17
2018-08-11T16:43:24.419Z,1.23
2018-08-11T16:45:52.832Z,1.27
2018-08-11T16:48:22.018Z,0.90
2018-08-11T16:50:50.395Z,1.30
2018-08-11T16:53:18.770Z,1.60
2018-08-11T16:55:47.389Z,1.53
2018-08-11T16:58:16.008Z,1.57
2018-08-11T17:00:44.883Z,1.00
2018-08-11T17:03:13.666Z,1.27
2018-08-11T17:05:42.907Z,1.20
2018-08-11T17:08:11.843Z,1.30
2018-08-11T17:10:41.214Z,1.10
2018-08-11T17:13:09.873Z,1.37
2018-08-11T17:15:38.442Z,1.20
2018-08-11T17:18:06.910Z,1.60
2018-08-11T17:20:35.378Z,1.30
2018-08-11T17:23:04.575Z,1.30
2018-08-11T17:25:34.001Z,1.10
2018-08-11T17:28:03.873Z,1.30
2018-08-11T17:30:33.387Z,0.90
2018-08-11T17:33:02.837Z,1.80
2018-08-11T17:35:31.321Z,2.20
2018-08-11T17:37:59.867Z,2.27
2018-08-11T17:40:28.543Z,2.10
2018-08-11T17:42:57.008Z,3.47
2018-08-11T17:45:25.788Z,3.17
2018-08-11T17:47:56.043Z,2.90
2018-08-11T17:50:25.764Z,1.87
2018-08-11T17:52:54.525Z,1.87
2018-08-11T17:55:23.133Z,1.60
2018-08-11T17:57:51.587Z,1.97
2018-08-11T18:00:22.082Z,1.37
2018-08-11T18:02:51.096Z,1.30
2018-08-11T18:05:20.294Z,1.13
2018-08-11T18:07:49.432Z,1.43
2018-08-11T18:10:18.605Z,2.10
2018-08-11T18:12:47.167Z,2.50
2018-08-11T18:15:15.774Z,1.90
2018-08-11T18:17:44.337Z,2.70
2018-08-11T18:20:13.041Z,3.13
2018-08-11T18:22:41.892Z,2.83
2018-08-11T18:25:10.447Z,3.50
2018-08-11T18:27:39.048Z,4.60
2018-08-11T18:30:08.373Z,7.17
2018-08-11T18:32:37.329Z,6.70
2018-08-11T18:35:07.184Z,7.47
2018-08-11T18:37:36.167Z,4.93
2018-08-11T18:40:05.665Z,4.20
2018-08-11T18:42:34.260Z,6.70
2018-08-11T18:45:02.912Z,5.70
2018-08-11T18:47:31.638Z,6.67
2018-08-11T18:50:00.207Z,4.03
2018-08-11T18:52:28.970Z,2.00
2018-08-11T18:54:57.754Z,1.67
2018-08-11T18:57:26.409Z,1.60
2018-08-11T18:59:55.049Z,1.37
2018-08-11T19:02:23.510Z,1.13
2018-08-11T19:04:52.037Z,1.00
2018-08-11T19:07:20.511Z,1.10
2018-08-11T19:09:49.067Z,1.20
2018-08-11T19:12:17.395Z,1.10
2018-08-11T19:14:45.897Z,1.63
2018-08-11T19:17:14.430Z,1.17
2018-08-11T19:19:43.805Z,1.63
2018-08-11T19:22:14.472Z,1.60
2018-08-11T19:24:43.630Z,3.00
2018-08-11T19:27:13.347Z,2.27
2018-08-11T19:29:42.293Z,1.40
2018-08-11T19:32:10.807Z,1.23
2018-08-11T19:34:41.003Z,1.77
2018-08-11T19:37:09.973Z,2.10
2018-08-11T19:39:38.870Z,2.23
2018-08-11T19:42:08.521Z,2.07
2018-08-11T19:44:37.436Z,1.70
2018-08-11T19:47:07.145Z,1.70
2018-08-11T19:49:39.951Z,1.30
2018-08-11T19:52:08.996Z,1.37
2018-08-11T19:54:45.575Z,1.63
2018-08-11T19:57:14.395Z,1.40
2018-08-11T19:59:43.496Z,1.93
2018-08-11T20:02:12.878Z,2.07
2018-08-11T20:04:41.911Z,1.80
2018-08-11T20:07:10.444Z,1.70
2018-08-11T20:09:41.830Z,1.80
2018-08-11T20:12:11.712Z,1.67
2018-08-11T20:14:40.437Z,1.60
2018-08-11T20:17:09.399Z,1.60
2018-08-11T20:19:38.168Z,1.57
2018-08-11T20:22:13.333Z,1.70
2018-08-11T20:24:42.424Z,1.80
2018-08-11T20:27:10.961Z,1.43
2018-08-11T20:29:40.840Z,1.27
2018-08-11T20:32:10.848Z,1.50
2018-08-11T20:34:40.014Z,1.77
2018-08-11T20:37:10.018Z,1.70
2018-08-11T20:39:38.741Z,1.73
2018-08-11T20:42:07.654Z,1.30
2018-08-11T20:44:36.241Z,1.33
2018-08-11T20:47:05.716Z,1.17
2018-08-11T20:49:34.325Z,1.57
2018-08-11T20:52:02.847Z,1.43
2018-08-11T20:54:34.378Z,1.40
2018-08-11T20:57:04.812Z,1.30
2018-08-11T20:59:35.647Z,1.30
2018-08-11T21:02:05.358Z,1.57
2018-08-11T21:04:34.319Z,1.70
2018-08-11T21:07:03.302Z,1.23
2018-08-11T21:09:33.060Z,1.53
2018-08-11T21:12:02.109Z,1.40
2018-08-11T21:14:30.614Z,1.30
2018-08-11T21:17:00.077Z,1.70
2018-08-11T21:19:28.919Z,1.50
2018-08-11T21:21:57.415Z,1.53
2018-08-11T21:24:25.849Z,1.80
2018-08-11T21:26:55.182Z,1.20
2018-08-11T21:29:23.652Z,1.40
2018-08-11T21:31:52.390Z,1.60
2018-08-11T21:34:21.924Z,1.27
2018-08-11T21:36:50.412Z,1.63
2018-08-11T21:39:19.558Z,1.20
2018-08-11T21:41:48.028Z,1.70
2018-08-11T21:44:17.185Z,1.83
2018-08-11T21:46:45.741Z,1.40
2018-08-11T21:49:14.199Z,1.50
2018-08-11T21:51:43.073Z,1.50
2018-08-11T21:54:11.524Z,1.30
2018-08-11T21:56:40.056Z,1.87
2018-08-11T21:59:08.519Z,1.70
2018-08-11T22:01:37.062Z,1.37
2018-08-11T22:04:06.715Z,1.50
2018-08-11T22:06:35.192Z,1.43
2018-08-11T22:09:03.848Z,2.00
2018-08-11T22:11:32.314Z,1.50
2018-08-11T22:14:00.739Z,1.50
2018-08-11T22:16:29.183Z,1.60
2018-08-11T22:18:57.681Z,1.80
2018-08-11T22:21:26.159Z,1.57
2018-08-11T22:23:54.702Z,1.50
2018-08-11T22:26:23.242Z,1.47
2018-08-11T22:28:51.687Z,1.63
2018-08-11T22:31:20.163Z,1.67
2018-08-11T22:33:48.920Z,1.87
2018-08-11T22:36:17.407Z,1.90
2018-08-11T22:38:45.830Z,2.10
2018-08-11T22:41:14.258Z,2.13
2018-08-11T22:43:42.683Z,1.63
2018-08-11T22:46:11.191Z,1.70
2018-08-11T22:48:39.633Z,1.60
2018-08-11T22:51:08.158Z,1.80
2018-08-11T22:53:36.631Z,1.63
2018-08-11T22:56:05.095Z,1.70
2018-08-11T22:58:33.551Z,1.70
2018-08-11T23:01:02.012Z,2.20
2018-08-11T23:03:30.483Z,1.50
2018-08-11T23:05:59.014Z,1.77
2018-08-11T23:08:27.446Z,1.57
2018-08-11T23:10:55.878Z,1.70
2018-08-11T23:13:24.594Z,1.67
2018-08-11T23:15:53.743Z,1.70
2018-08-11T23:18:22.222Z,1.80
2018-08-11T23:20:50.652Z,2.00
2018-08-11T23:23:19.075Z,1.80
2018-08-11T23:25:47.516Z,1.60
2018-08-11T23:28:16.015Z,1.97
2018-08-11T23:30:44.463Z,1.90
2018-08-11T23:33:12.919Z,1.70
2018-08-11T23:35:41.381Z,1.60
2018-08-11T23:38:09.899Z,1.80
2018-08-11T23:40:38.391Z,1.77
2018-08-11T23:43:07.239Z,1.73
2018-08-11T23:45:35.647Z,2.00
2018-08-11T23:48:04.247Z,1.77
2018-08-11T23:50:32.690Z,2.17
2018-08-11T23:53:01.104Z,2.20
2018-08-11T23:55:29.639Z,1.93
2018-08-11T23:57:58.104Z,1.30
